sensor_id;sensor_type;location;lat;lon;timestamp;P1;durP1;ratioP1;P2;durP2;ratioP2
58109;SDS011;58943;50.168;4.410;2023-05-14T00:00:14;5.05;;;4.40;;
58109;SDS011;58943;50.168;4.410;2023-05-14T00:02:41;5.85;;;4.25;;
58109;SDS011;58943;50.168;4.410;2023-05-14T00:05:07;6.40;;;4.50;;
58109;SDS011;58943;50.168;4.410;2023-05-14T00:07:34;6.97;;;4.38;;
58109;SDS011;58943;50.168;4.410;2023-05-14T00:10:01;7.25;;;4.53;;
58109;SDS011;58943;50.168;4.410;2023-05-14T00:12:27;4.25;;;3.85;;
58109;SDS011;58943;50.168;4.410;2023-05-14T00:14:54;5.85;;;4.97;;
58109;SDS011;58943;50.168;4.410;2023-05-14T00:17:21;5.40;;;4.85;;
58109;SDS011;58943;50.168;4.410;2023-05-14T00:19:47;5.95;;;4.70;;
58109;SDS011;58943;50.168;4.410;2023-05-14T00:22:14;6.22;;;4.93;;
58109;SDS011;58943;50.168;4.410;2023-05-14T00:24:40;5.03;;;4.25;;
58109;SDS011;58943;50.168;4.410;2023-05-14T00:27:06;5.43;;;4.07;;
58109;SDS011;58943;50.168;4.410;2023-05-14T00:29:34;6.05;;;4.80;;
58109;SDS011;58943;50.168;4.410;2023-05-14T00:32:01;6.43;;;5.00;;
58109;SDS011;58943;50.168;4.410;2023-05-14T00:34:27;5.57;;;4.60;;
58109;SDS011;58943;50.168;4.410;2023-05-14T00:36:53;5.80;;;4.80;;
58109;SDS011;58943;50.168;4.410;2023-05-14T00:39:20;5.50;;;4.07;;
58109;SDS011;58943;50.168;4.410;2023-05-14T00:41:47;4.82;;;4.20;;
58109;SDS011;58943;50.168;4.410;2023-05-14T00:44:13;7.13;;;4.55;;
58109;SDS011;58943;50.168;4.410;2023-05-14T00:46:40;6.65;;;4.85;;
58109;SDS011;58943;50.168;4.410;2023-05-14T00:49:07;5.15;;;4.53;;
58109;SDS011;58943;50.168;4.410;2023-05-14T00:51:34;6.53;;;4.78;;
58109;SDS011;58943;50.168;4.410;2023-05-14T00:54:01;5.35;;;4.78;;
58109;SDS011;58943;50.168;4.410;2023-05-14T00:56:27;5.55;;;4.63;;
58109;SDS011;58943;50.168;4.410;2023-05-14T00:58:54;5.32;;;4.65;;
58109;SDS011;58943;50.168;4.410;2023-05-14T01:01:20;5.75;;;4.47;;
58109;SDS011;58943;50.168;4.410;2023-05-14T01:03:46;5.50;;;4.85;;
58109;SDS011;58943;50.168;4.410;2023-05-14T01:06:28;6.47;;;4.78;;
58109;SDS011;58943;50.168;4.410;2023-05-14T01:14:36;7.15;;;5.05;;
58109;SDS011;58943;50.168;4.410;2023-05-14T01:17:06;5.55;;;4.95;;
58109;SDS011;58943;50.168;4.410;2023-05-14T01:19:38;7.03;;;5.07;;
58109;SDS011;58943;50.168;4.410;2023-05-14T01:22:05;5.10;;;4.35;;
58109;SDS011;58943;50.168;4.410;2023-05-14T01:24:31;5.55;;;4.97;;
58109;SDS011;58943;50.168;4.410;2023-05-14T01:29:47;6.97;;;5.28;;
58109;SDS011;58943;50.168;4.410;2023-05-14T01:32:15;6.18;;;5.00;;
58109;SDS011;58943;50.168;4.410;2023-05-14T01:34:42;5.75;;;5.05;;
58109;SDS011;58943;50.168;4.410;2023-05-14T01:37:09;6.93;;;5.80;;
58109;SDS011;58943;50.168;4.410;2023-05-14T01:39:36;6.50;;;5.13;;
58109;SDS011;58943;50.168;4.410;2023-05-14T01:42:04;6.57;;;5.00;;
58109;SDS011;58943;50.168;4.410;2023-05-14T01:44:30;7.00;;;5.30;;
58109;SDS011;58943;50.168;4.410;2023-05-14T01:46:57;7.60;;;5.63;;
58109;SDS011;58943;50.168;4.410;2023-05-14T01:49:23;7.78;;;5.80;;
58109;SDS011;58943;50.168;4.410;2023-05-14T01:51:50;7.18;;;5.20;;
58109;SDS011;58943;50.168;4.410;2023-05-14T01:54:16;8.57;;;5.80;;
58109;SDS011;58943;50.168;4.410;2023-05-14T01:56:43;6.72;;;5.40;;
58109;SDS011;58943;50.168;4.410;2023-05-14T01:59:09;6.90;;;5.05;;
58109;SDS011;58943;50.168;4.410;2023-05-14T02:01:35;8.30;;;6.30;;
58109;SDS011;58943;50.168;4.410;2023-05-14T02:04:02;6.45;;;5.35;;
58109;SDS011;58943;50.168;4.410;2023-05-14T02:06:28;8.02;;;5.57;;
58109;SDS011;58943;50.168;4.410;2023-05-14T02:08:56;7.22;;;5.50;;
58109;SDS011;58943;50.168;4.410;2023-05-14T02:11:22;7.80;;;5.38;;
58109;SDS011;58943;50.168;4.410;2023-05-14T02:13:48;7.43;;;5.70;;
58109;SDS011;58943;50.168;4.410;2023-05-14T02:16:15;7.78;;;5.55;;
58109;SDS011;58943;50.168;4.410;2023-05-14T02:18:41;6.68;;;5.60;;
58109;SDS011;58943;50.168;4.410;2023-05-14T02:21:08;8.40;;;6.00;;
58109;SDS011;58943;50.168;4.410;2023-05-14T02:23:34;6.60;;;5.70;;
58109;SDS011;58943;50.168;4.410;2023-05-14T02:26:00;7.10;;;5.97;;
58109;SDS011;58943;50.168;4.410;2023-05-14T02:28:27;6.95;;;5.72;;
58109;SDS011;58943;50.168;4.410;2023-05-14T02:30:59;8.30;;;6.00;;
58109;SDS011;58943;50.168;4.410;2023-05-14T02:33:26;8.35;;;6.30;;
58109;SDS011;58943;50.168;4.410;2023-05-14T02:35:52;8.85;;;5.80;;
58109;SDS011;58943;50.168;4.410;2023-05-14T02:38:19;8.00;;;6.00;;
58109;SDS011;58943;50.168;4.410;2023-05-14T02:40:45;9.43;;;6.10;;
58109;SDS011;58943;50.168;4.410;2023-05-14T02:43:11;7.85;;;6.13;;
58109;SDS011;58943;50.168;4.410;2023-05-14T02:45:38;9.73;;;7.00;;
58109;SDS011;58943;50.168;4.410;2023-05-14T02:48:04;8.95;;;6.50;;
58109;SDS011;58943;50.168;4.410;2023-05-14T02:50:31;8.68;;;6.32;;
58109;SDS011;58943;50.168;4.410;2023-05-14T02:52:57;7.50;;;6.03;;
58109;SDS011;58943;50.168;4.410;2023-05-14T02:55:24;8.32;;;6.20;;
58109;SDS011;58943;50.168;4.410;2023-05-14T02:57:50;9.05;;;6.28;;
58109;SDS011;58943;50.168;4.410;2023-05-14T03:00:17;7.85;;;6.32;;
58109;SDS011;58943;50.168;4.410;2023-05-14T03:02:44;8.50;;;6.53;;
58109;SDS011;58943;50.168;4.410;2023-05-14T03:05:10;8.80;;;6.45;;
58109;SDS011;58943;50.168;4.410;2023-05-14T03:07:37;10.02;;;6.97;;
58109;SDS011;58943;50.168;4.410;2023-05-14T03:10:03;7.30;;;6.25;;
58109;SDS011;58943;50.168;4.410;2023-05-14T03:12:30;9.02;;;6.65;;
58109;SDS011;58943;50.168;4.410;2023-05-14T03:14:56;7.75;;;6.40;;
58109;SDS011;58943;50.168;4.410;2023-05-14T03:17:22;8.48;;;6.63;;
58109;SDS011;58943;50.168;4.410;2023-05-14T03:19:48;8.98;;;7.05;;
58109;SDS011;58943;50.168;4.410;2023-05-14T03:22:15;9.55;;;6.65;;
58109;SDS011;58943;50.168;4.410;2023-05-14T03:24:41;8.77;;;6.75;;
58109;SDS011;58943;50.168;4.410;2023-05-14T03:27:08;8.98;;;6.68;;
58109;SDS011;58943;50.168;4.410;2023-05-14T03:29:34;8.07;;;6.30;;
58109;SDS011;58943;50.168;4.410;2023-05-14T03:32:00;7.65;;;6.60;;
58109;SDS011;58943;50.168;4.410;2023-05-14T03:34:27;8.82;;;6.88;;
58109;SDS011;58943;50.168;4.410;2023-05-14T03:36:53;8.63;;;6.47;;
58109;SDS011;58943;50.168;4.410;2023-05-14T03:39:20;8.90;;;7.00;;
58109;SDS011;58943;50.168;4.410;2023-05-14T03:41:46;8.38;;;6.63;;
58109;SDS011;58943;50.168;4.410;2023-05-14T03:44:14;12.10;;;6.82;;
58109;SDS011;58943;50.168;4.410;2023-05-14T03:46:40;7.78;;;6.63;;
58109;SDS011;58943;50.168;4.410;2023-05-14T03:49:07;8.27;;;6.63;;
58109;SDS011;58943;50.168;4.410;2023-05-14T03:51:33;9.18;;;6.82;;
58109;SDS011;58943;50.168;4.410;2023-05-14T03:53:59;8.98;;;6.63;;
58109;SDS011;58943;50.168;4.410;2023-05-14T03:56:26;8.48;;;6.72;;
58109;SDS011;58943;50.168;4.410;2023-05-14T03:58:52;7.57;;;6.32;;
58109;SDS011;58943;50.168;4.410;2023-05-14T04:01:18;10.35;;;7.20;;
58109;SDS011;58943;50.168;4.410;2023-05-14T04:03:45;9.32;;;6.85;;
58109;SDS011;58943;50.168;4.410;2023-05-14T04:06:11;9.80;;;6.70;;
58109;SDS011;58943;50.168;4.410;2023-05-14T04:08:37;8.18;;;6.82;;
58109;SDS011;58943;50.168;4.410;2023-05-14T04:11:04;11.75;;;7.25;;
58109;SDS011;58943;50.168;4.410;2023-05-14T04:13:30;10.25;;;7.28;;
58109;SDS011;58943;50.168;4.410;2023-05-14T04:15:57;9.70;;;7.45;;
58109;SDS011;58943;50.168;4.410;2023-05-14T04:18:24;9.93;;;7.10;;
58109;SDS011;58943;50.168;4.410;2023-05-14T04:20:50;9.45;;;7.22;;
58109;SDS011;58943;50.168;4.410;2023-05-14T04:23:16;9.95;;;7.63;;
58109;SDS011;58943;50.168;4.410;2023-05-14T04:25:43;8.07;;;6.63;;
58109;SDS011;58943;50.168;4.410;2023-05-14T04:28:09;9.80;;;7.40;;
58109;SDS011;58943;50.168;4.410;2023-05-14T04:30:36;9.48;;;7.22;;
58109;SDS011;58943;50.168;4.410;2023-05-14T04:33:02;10.27;;;7.13;;
58109;SDS011;58943;50.168;4.410;2023-05-14T04:35:28;8.25;;;7.00;;
58109;SDS011;58943;50.168;4.410;2023-05-14T04:37:55;9.45;;;7.38;;
58109;SDS011;58943;50.168;4.410;2023-05-14T04:40:21;8.68;;;6.93;;
58109;SDS011;58943;50.168;4.410;2023-05-14T04:42:48;9.57;;;7.10;;
58109;SDS011;58943;50.168;4.410;2023-05-14T04:45:14;12.30;;;7.35;;
58109;SDS011;58943;50.168;4.410;2023-05-14T04:47:41;7.82;;;6.97;;
58109;SDS011;58943;50.168;4.410;2023-05-14T04:50:09;10.30;;;7.40;;
58109;SDS011;58943;50.168;4.410;2023-05-14T04:52:35;9.05;;;7.28;;
58109;SDS011;58943;50.168;4.410;2023-05-14T04:55:01;11.25;;;7.47;;
58109;SDS011;58943;50.168;4.410;2023-05-14T04:57:28;10.00;;;7.45;;
58109;SDS011;58943;50.168;4.410;2023-05-14T04:59:54;10.00;;;7.20;;
58109;SDS011;58943;50.168;4.410;2023-05-14T05:02:20;9.95;;;7.53;;
58109;SDS011;58943;50.168;4.410;2023-05-14T05:04:47;8.70;;;6.88;;
58109;SDS011;58943;50.168;4.410;2023-05-14T05:07:13;10.18;;;7.03;;
58109;SDS011;58943;50.168;4.410;2023-05-14T05:09:41;8.02;;;6.43;;
58109;SDS011;58943;50.168;4.410;2023-05-14T05:12:08;9.15;;;7.40;;
58109;SDS011;58943;50.168;4.410;2023-05-14T05:14:34;7.85;;;6.63;;
58109;SDS011;58943;50.168;4.410;2023-05-14T05:17:01;9.02;;;7.05;;
58109;SDS011;58943;50.168;4.410;2023-05-14T05:19:28;9.55;;;8.00;;
58109;SDS011;58943;50.168;4.410;2023-05-14T05:21:54;9.25;;;6.78;;
58109;SDS011;58943;50.168;4.410;2023-05-14T05:24:21;7.95;;;6.97;;
58109;SDS011;58943;50.168;4.410;2023-05-14T05:26:47;9.63;;;6.90;;
58109;SDS011;58943;50.168;4.410;2023-05-14T05:29:14;9.57;;;7.20;;
58109;SDS011;58943;50.168;4.410;2023-05-14T05:31:40;7.80;;;6.78;;
58109;SDS011;58943;50.168;4.410;2023-05-14T05:34:07;9.88;;;7.20;;
58109;SDS011;58943;50.168;4.410;2023-05-14T05:36:33;9.57;;;7.70;;
58109;SDS011;58943;50.168;4.410;2023-05-14T05:38:59;9.85;;;7.72;;
58109;SDS011;58943;50.168;4.410;2023-05-14T05:41:26;9.98;;;7.45;;
58109;SDS011;58943;50.168;4.410;2023-05-14T05:43:54;8.80;;;7.20;;
58109;SDS011;58943;50.168;4.410;2023-05-14T05:46:20;9.43;;;7.03;;
58109;SDS011;58943;50.168;4.410;2023-05-14T05:48:47;8.50;;;7.20;;
58109;SDS011;58943;50.168;4.410;2023-05-14T05:51:13;9.85;;;7.28;;
58109;SDS011;58943;50.168;4.410;2023-05-14T05:53:40;9.35;;;6.90;;
58109;SDS011;58943;50.168;4.410;2023-05-14T05:56:06;9.57;;;7.20;;
58109;SDS011;58943;50.168;4.410;2023-05-14T05:58:33;8.55;;;7.60;;
58109;SDS011;58943;50.168;4.410;2023-05-14T06:00:59;10.50;;;7.63;;
58109;SDS011;58943;50.168;4.410;2023-05-14T06:03:25;10.38;;;7.28;;
58109;SDS011;58943;50.168;4.410;2023-05-14T06:05:52;11.00;;;7.90;;
58109;SDS011;58943;50.168;4.410;2023-05-14T06:08:18;9.70;;;7.35;;
58109;SDS011;58943;50.168;4.410;2023-05-14T06:10:45;9.50;;;7.40;;
58109;SDS011;58943;50.168;4.410;2023-05-14T06:13:11;10.45;;;7.22;;
58109;SDS011;58943;50.168;4.410;2023-05-14T06:15:37;10.35;;;7.93;;
58109;SDS011;58943;50.168;4.410;2023-05-14T06:18:04;8.77;;;7.32;;
58109;SDS011;58943;50.168;4.410;2023-05-14T06:20:30;10.70;;;7.57;;
58109;SDS011;58943;50.168;4.410;2023-05-14T06:22:57;9.98;;;7.63;;
58109;SDS011;58943;50.168;4.410;2023-05-14T06:25:23;11.95;;;8.15;;
58109;SDS011;58943;50.168;4.410;2023-05-14T06:27:50;8.88;;;7.75;;
58109;SDS011;58943;50.168;4.410;2023-05-14T06:30:16;9.80;;;7.78;;
58109;SDS011;58943;50.168;4.410;2023-05-14T06:32:42;9.48;;;7.30;;
58109;SDS011;58943;50.168;4.410;2023-05-14T06:35:08;9.50;;;7.55;;
58109;SDS011;58943;50.168;4.410;2023-05-14T06:37:35;8.60;;;7.20;;
58109;SDS011;58943;50.168;4.410;2023-05-14T06:40:02;8.98;;;7.35;;
58109;SDS011;58943;50.168;4.410;2023-05-14T06:42:28;10.18;;;7.57;;
58109;SDS011;58943;50.168;4.410;2023-05-14T06:44:54;9.48;;;7.97;;
58109;SDS011;58943;50.168;4.410;2023-05-14T06:47:21;10.13;;;8.13;;
58109;SDS011;58943;50.168;4.410;2023-05-14T06:49:47;10.43;;;8.07;;
58109;SDS011;58943;50.168;4.410;2023-05-14T06:52:13;9.02;;;7.35;;
58109;SDS011;58943;50.168;4.410;2023-05-14T06:54:40;9.25;;;7.45;;
58109;SDS011;58943;50.168;4.410;2023-05-14T06:57:06;10.02;;;7.97;;
58109;SDS011;58943;50.168;4.410;2023-05-14T06:59:32;9.77;;;7.93;;
58109;SDS011;58943;50.168;4.410;2023-05-14T07:01:59;11.88;;;8.20;;
58109;SDS011;58943;50.168;4.410;2023-05-14T07:04:26;9.70;;;7.82;;
58109;SDS011;58943;50.168;4.410;2023-05-14T07:06:52;8.85;;;7.18;;
58109;SDS011;58943;50.168;4.410;2023-05-14T07:09:18;10.65;;;7.60;;
58109;SDS011;58943;50.168;4.410;2023-05-14T07:11:46;10.18;;;7.72;;
58109;SDS011;58943;50.168;4.410;2023-05-14T07:14:12;11.07;;;8.20;;
58109;SDS011;58943;50.168;4.410;2023-05-14T07:16:39;11.32;;;8.52;;
58109;SDS011;58943;50.168;4.410;2023-05-14T07:19:06;11.02;;;7.80;;
58109;SDS011;58943;50.168;4.410;2023-05-14T07:21:33;10.80;;;7.93;;
58109;SDS011;58943;50.168;4.410;2023-05-14T07:24:00;10.65;;;8.30;;
58109;SDS011;58943;50.168;4.410;2023-05-14T07:26:26;12.73;;;8.50;;
58109;SDS011;58943;50.168;4.410;2023-05-14T07:28:53;11.25;;;8.20;;
58109;SDS011;58943;50.168;4.410;2023-05-14T07:31:19;11.32;;;8.30;;
58109;SDS011;58943;50.168;4.410;2023-05-14T07:33:45;11.55;;;8.18;;
58109;SDS011;58943;50.168;4.410;2023-05-14T07:36:12;10.13;;;7.90;;
58109;SDS011;58943;50.168;4.410;2023-05-14T07:38:38;12.50;;;8.27;;
58109;SDS011;58943;50.168;4.410;2023-05-14T07:41:05;12.60;;;8.55;;
58109;SDS011;58943;50.168;4.410;2023-05-14T07:43:32;11.75;;;9.20;;
58109;SDS011;58943;50.168;4.410;2023-05-14T07:45:58;12.48;;;8.48;;
58109;SDS011;58943;50.168;4.410;2023-05-14T07:48:24;13.15;;;9.35;;
58109;SDS011;58943;50.168;4.410;2023-05-14T07:50:51;11.02;;;8.10;;
58109;SDS011;58943;50.168;4.410;2023-05-14T07:53:17;11.90;;;8.88;;
58109;SDS011;58943;50.168;4.410;2023-05-14T07:55:44;11.10;;;8.82;;
58109;SDS011;58943;50.168;4.410;2023-05-14T07:58:12;11.77;;;8.70;;
58109;SDS011;58943;50.168;4.410;2023-05-14T08:00:38;10.80;;;7.60;;
58109;SDS011;58943;50.168;4.410;2023-05-14T08:03:05;12.13;;;8.73;;
58109;SDS011;58943;50.168;4.410;2023-05-14T08:05:31;11.05;;;8.32;;
58109;SDS011;58943;50.168;4.410;2023-05-14T08:07:57;11.63;;;8.82;;
58109;SDS011;58943;50.168;4.410;2023-05-14T08:10:24;10.90;;;8.35;;
58109;SDS011;58943;50.168;4.410;2023-05-14T08:12:50;9.68;;;7.50;;
58109;SDS011;58943;50.168;4.410;2023-05-14T08:15:16;10.07;;;8.02;;
58109;SDS011;58943;50.168;4.410;2023-05-14T08:17:42;12.35;;;8.90;;
58109;SDS011;58943;50.168;4.410;2023-05-14T08:20:09;11.82;;;7.82;;
58109;SDS011;58943;50.168;4.410;2023-05-14T08:22:36;11.20;;;8.05;;
58109;SDS011;58943;50.168;4.410;2023-05-14T08:25:02;11.80;;;8.10;;
58109;SDS011;58943;50.168;4.410;2023-05-14T08:27:30;10.35;;;7.90;;
58109;SDS011;58943;50.168;4.410;2023-05-14T08:29:57;9.93;;;8.38;;
58109;SDS011;58943;50.168;4.410;2023-05-14T08:32:23;11.88;;;8.25;;
58109;SDS011;58943;50.168;4.410;2023-05-14T08:34:50;9.25;;;7.82;;
58109;SDS011;58943;50.168;4.410;2023-05-14T08:37:16;11.77;;;8.45;;
58109;SDS011;58943;50.168;4.410;2023-05-14T08:39:43;9.70;;;7.72;;
58109;SDS011;58943;50.168;4.410;2023-05-14T08:42:10;9.75;;;7.60;;
58109;SDS011;58943;50.168;4.410;2023-05-14T08:44:38;12.13;;;8.30;;
58109;SDS011;58943;50.168;4.410;2023-05-14T08:47:10;11.70;;;7.78;;
58109;SDS011;58943;50.168;4.410;2023-05-14T08:49:40;10.85;;;8.00;;
58109;SDS011;58943;50.168;4.410;2023-05-14T08:52:10;12.23;;;8.23;;
58109;SDS011;58943;50.168;4.410;2023-05-14T08:54:37;11.00;;;8.27;;
58109;SDS011;58943;50.168;4.410;2023-05-14T08:57:03;10.15;;;8.07;;
58109;SDS011;58943;50.168;4.410;2023-05-14T08:59:30;10.88;;;8.13;;
58109;SDS011;58943;50.168;4.410;2023-05-14T09:01:57;10.52;;;7.88;;
58109;SDS011;58943;50.168;4.410;2023-05-14T09:04:26;11.00;;;8.20;;
58109;SDS011;58943;50.168;4.410;2023-05-14T09:06:54;10.48;;;8.20;;
58109;SDS011;58943;50.168;4.410;2023-05-14T09:09:21;13.80;;;8.35;;
58109;SDS011;58943;50.168;4.410;2023-05-14T09:11:48;10.73;;;8.13;;
58109;SDS011;58943;50.168;4.410;2023-05-14T09:14:14;13.18;;;8.27;;
58109;SDS011;58943;50.168;4.410;2023-05-14T09:16:43;10.68;;;8.27;;
58109;SDS011;58943;50.168;4.410;2023-05-14T09:19:10;12.23;;;8.35;;
58109;SDS011;58943;50.168;4.410;2023-05-14T09:21:38;13.00;;;8.63;;
58109;SDS011;58943;50.168;4.410;2023-05-14T09:24:05;11.40;;;8.63;;
58109;SDS011;58943;50.168;4.410;2023-05-14T09:26:32;10.35;;;7.85;;
58109;SDS011;58943;50.168;4.410;2023-05-14T09:28:58;10.15;;;8.57;;
58109;SDS011;58943;50.168;4.410;2023-05-14T09:31:29;12.48;;;8.63;;
58109;SDS011;58943;50.168;4.410;2023-05-14T09:33:56;11.90;;;8.57;;
58109;SDS011;58943;50.168;4.410;2023-05-14T09:36:22;11.90;;;7.97;;
58109;SDS011;58943;50.168;4.410;2023-05-14T09:38:52;11.57;;;8.40;;
58109;SDS011;58943;50.168;4.410;2023-05-14T09:41:18;10.45;;;8.65;;
58109;SDS011;58943;50.168;4.410;2023-05-14T09:43:47;12.65;;;8.68;;
58109;SDS011;58943;50.168;4.410;2023-05-14T09:46:14;10.70;;;8.40;;
58109;SDS011;58943;50.168;4.410;2023-05-14T09:48:40;11.07;;;8.35;;
58109;SDS011;58943;50.168;4.410;2023-05-14T09:51:08;12.30;;;8.25;;
58109;SDS011;58943;50.168;4.410;2023-05-14T09:53:36;12.13;;;8.70;;
58109;SDS011;58943;50.168;4.410;2023-05-14T09:56:02;10.50;;;8.50;;
58109;SDS011;58943;50.168;4.410;2023-05-14T09:58:29;10.52;;;8.05;;
58109;SDS011;58943;50.168;4.410;2023-05-14T10:00:56;11.02;;;8.75;;
58109;SDS011;58943;50.168;4.410;2023-05-14T10:03:24;9.32;;;7.90;;
58109;SDS011;58943;50.168;4.410;2023-05-14T10:05:53;10.63;;;8.55;;
58109;SDS011;58943;50.168;4.410;2023-05-14T10:08:26;11.57;;;8.90;;
58109;SDS011;58943;50.168;4.410;2023-05-14T10:10:53;10.75;;;8.30;;
58109;SDS011;58943;50.168;4.410;2023-05-14T10:13:22;11.63;;;8.65;;
58109;SDS011;58943;50.168;4.410;2023-05-14T10:16:23;10.70;;;8.32;;
58109;SDS011;58943;50.168;4.410;2023-05-14T10:18:42;13.30;;;8.55;;
58109;SDS011;58943;50.168;4.410;2023-05-14T10:21:13;10.82;;;8.50;;
58109;SDS011;58943;50.168;4.410;2023-05-14T10:23:39;10.95;;;8.60;;
58109;SDS011;58943;50.168;4.410;2023-05-14T10:26:07;11.82;;;9.05;;
58109;SDS011;58943;50.168;4.410;2023-05-14T10:28:33;11.13;;;8.68;;
58109;SDS011;58943;50.168;4.410;2023-05-14T10:31:00;11.68;;;9.10;;
58109;SDS011;58943;50.168;4.410;2023-05-14T10:33:27;11.23;;;8.77;;
58109;SDS011;58943;50.168;4.410;2023-05-14T10:35:58;10.45;;;8.35;;
58109;SDS011;58943;50.168;4.410;2023-05-14T10:38:29;11.48;;;8.98;;
58109;SDS011;58943;50.168;4.410;2023-05-14T10:41:09;12.00;;;8.85;;
58109;SDS011;58943;50.168;4.410;2023-05-14T10:43:38;11.98;;;8.93;;
58109;SDS011;58943;50.168;4.410;2023-05-14T10:46:04;10.93;;;8.35;;
58109;SDS011;58943;50.168;4.410;2023-05-14T10:48:32;11.05;;;8.27;;
58109;SDS011;58943;50.168;4.410;2023-05-14T10:50:59;10.70;;;8.05;;
58109;SDS011;58943;50.168;4.410;2023-05-14T10:53:33;11.43;;;8.30;;
58109;SDS011;58943;50.168;4.410;2023-05-14T10:56:18;10.90;;;8.48;;
58109;SDS011;58943;50.168;4.410;2023-05-14T10:58:45;11.38;;;8.35;;
58109;SDS011;58943;50.168;4.410;2023-05-14T11:01:15;10.35;;;8.48;;
58109;SDS011;58943;50.168;4.410;2023-05-14T11:03:42;10.60;;;8.65;;
58109;SDS011;58943;50.168;4.410;2023-05-14T11:06:10;12.38;;;8.35;;
58109;SDS011;58943;50.168;4.410;2023-05-14T11:08:37;9.93;;;7.60;;
58109;SDS011;58943;50.168;4.410;2023-05-14T11:11:04;11.88;;;8.57;;
58109;SDS011;58943;50.168;4.410;2023-05-14T11:13:30;11.07;;;8.52;;
58109;SDS011;58943;50.168;4.410;2023-05-14T11:15:59;10.02;;;8.32;;
58109;SDS011;58943;50.168;4.410;2023-05-14T11:18:29;11.93;;;9.05;;
58109;SDS011;58943;50.168;4.410;2023-05-14T11:20:57;9.77;;;8.25;;
58109;SDS011;58943;50.168;4.410;2023-05-14T11:23:24;12.07;;;8.73;;
58109;SDS011;58943;50.168;4.410;2023-05-14T11:25:51;11.13;;;8.90;;
58109;SDS011;58943;50.168;4.410;2023-05-14T11:28:24;12.15;;;8.27;;
58109;SDS011;58943;50.168;4.410;2023-05-14T11:30:51;10.57;;;8.68;;
58109;SDS011;58943;50.168;4.410;2023-05-14T11:33:18;10.73;;;8.23;;
58109;SDS011;58943;50.168;4.410;2023-05-14T11:35:45;12.02;;;8.52;;
58109;SDS011;58943;50.168;4.410;2023-05-14T11:38:16;10.13;;;8.02;;
58109;SDS011;58943;50.168;4.410;2023-05-14T11:40:49;11.98;;;8.80;;
58109;SDS011;58943;50.168;4.410;2023-05-14T11:43:17;12.18;;;8.55;;
58109;SDS011;58943;50.168;4.410;2023-05-14T11:45:48;9.73;;;7.75;;
58109;SDS011;58943;50.168;4.410;2023-05-14T11:48:15;10.02;;;8.65;;
58109;SDS011;58943;50.168;4.410;2023-05-14T11:50:46;9.90;;;8.35;;
58109;SDS011;58943;50.168;4.410;2023-05-14T11:53:27;10.00;;;8.30;;
58109;SDS011;58943;50.168;4.410;2023-05-14T11:55:53;11.38;;;8.85;;
58109;SDS011;58943;50.168;4.410;2023-05-14T11:58:22;9.38;;;7.82;;
58109;SDS011;58943;50.168;4.410;2023-05-14T12:00:49;13.30;;;7.97;;
58109;SDS011;58943;50.168;4.410;2023-05-14T12:03:17;10.07;;;8.18;;
58109;SDS011;58943;50.168;4.410;2023-05-14T12:05:56;10.50;;;8.55;;
58109;SDS011;58943;50.168;4.410;2023-05-14T12:08:27;9.98;;;8.20;;
58109;SDS011;58943;50.168;4.410;2023-05-14T12:10:53;10.50;;;8.90;;
58109;SDS011;58943;50.168;4.410;2023-05-14T12:13:20;9.18;;;8.10;;
58109;SDS011;58943;50.168;4.410;2023-05-14T12:15:52;9.98;;;8.32;;
58109;SDS011;58943;50.168;4.410;2023-05-14T12:18:19;10.88;;;8.65;;
58109;SDS011;58943;50.168;4.410;2023-05-14T12:20:48;11.02;;;8.10;;
58109;SDS011;58943;50.168;4.410;2023-05-14T12:23:25;11.73;;;8.35;;
58109;SDS011;58943;50.168;4.410;2023-05-14T12:25:52;10.57;;;8.48;;
58109;SDS011;58943;50.168;4.410;2023-05-14T12:28:18;9.63;;;8.50;;
58109;SDS011;58943;50.168;4.410;2023-05-14T12:30:45;10.60;;;8.70;;
58109;SDS011;58943;50.168;4.410;2023-05-14T12:33:12;9.73;;;8.60;;
58109;SDS011;58943;50.168;4.410;2023-05-14T12:35:38;9.10;;;7.70;;
58109;SDS011;58943;50.168;4.410;2023-05-14T12:38:05;11.35;;;8.38;;
58109;SDS011;58943;50.168;4.410;2023-05-14T12:40:31;11.80;;;8.43;;
58109;SDS011;58943;50.168;4.410;2023-05-14T12:42:58;9.38;;;8.07;;
58109;SDS011;58943;50.168;4.410;2023-05-14T12:45:24;10.43;;;8.30;;
58109;SDS011;58943;50.168;4.410;2023-05-14T12:47:51;9.57;;;8.23;;
58109;SDS011;58943;50.168;4.410;2023-05-14T12:50:17;10.85;;;8.73;;
58109;SDS011;58943;50.168;4.410;2023-05-14T12:52:43;10.70;;;8.13;;
58109;SDS011;58943;50.168;4.410;2023-05-14T12:55:10;9.10;;;8.20;;
58109;SDS011;58943;50.168;4.410;2023-05-14T12:57:37;11.40;;;8.90;;
58109;SDS011;58943;50.168;4.410;2023-05-14T13:00:04;10.18;;;8.18;;
58109;SDS011;58943;50.168;4.410;2023-05-14T13:02:31;10.45;;;8.07;;
58109;SDS011;58943;50.168;4.410;2023-05-14T13:04:58;10.82;;;8.57;;
58109;SDS011;58943;50.168;4.410;2023-05-14T13:07:27;11.50;;;8.50;;
58109;SDS011;58943;50.168;4.410;2023-05-14T13:09:54;10.30;;;8.30;;
58109;SDS011;58943;50.168;4.410;2023-05-14T13:12:21;10.05;;;7.75;;
58109;SDS011;58943;50.168;4.410;2023-05-14T13:14:48;10.13;;;7.93;;
58109;SDS011;58943;50.168;4.410;2023-05-14T13:17:14;10.77;;;8.65;;
58109;SDS011;58943;50.168;4.410;2023-05-14T13:19:41;9.45;;;8.00;;
58109;SDS011;58943;50.168;4.410;2023-05-14T13:22:07;9.57;;;7.70;;
58109;SDS011;58943;50.168;4.410;2023-05-14T13:24:34;10.07;;;8.63;;
58109;SDS011;58943;50.168;4.410;2023-05-14T13:27:00;9.25;;;8.23;;
58109;SDS011;58943;50.168;4.410;2023-05-14T13:29:26;10.40;;;8.38;;
58109;SDS011;58943;50.168;4.410;2023-05-14T13:31:54;9.52;;;8.07;;
58109;SDS011;58943;50.168;4.410;2023-05-14T13:34:20;9.10;;;8.13;;
58109;SDS011;58943;50.168;4.410;2023-05-14T13:36:46;8.77;;;7.88;;
58109;SDS011;58943;50.168;4.410;2023-05-14T13:39:14;9.38;;;8.38;;
58109;SDS011;58943;50.168;4.410;2023-05-14T13:41:40;10.00;;;8.35;;
58109;SDS011;58943;50.168;4.410;2023-05-14T13:44:07;9.50;;;7.85;;
58109;SDS011;58943;50.168;4.410;2023-05-14T13:46:33;9.05;;;8.05;;
58109;SDS011;58943;50.168;4.410;2023-05-14T13:48:59;10.02;;;8.15;;
58109;SDS011;58943;50.168;4.410;2023-05-14T13:51:26;9.50;;;8.50;;
58109;SDS011;58943;50.168;4.410;2023-05-14T13:53:52;11.23;;;8.20;;
58109;SDS011;58943;50.168;4.410;2023-05-14T13:56:19;8.85;;;7.28;;
58109;SDS011;58943;50.168;4.410;2023-05-14T13:58:45;9.63;;;8.00;;
58109;SDS011;58943;50.168;4.410;2023-05-14T14:01:12;10.32;;;8.18;;
58109;SDS011;58943;50.168;4.410;2023-05-14T14:03:39;8.65;;;7.68;;
58109;SDS011;58943;50.168;4.410;2023-05-14T14:06:05;8.60;;;7.70;;
58109;SDS011;58943;50.168;4.410;2023-05-14T14:08:31;7.88;;;7.03;;
58109;SDS011;58943;50.168;4.410;2023-05-14T14:10:58;9.13;;;7.55;;
58109;SDS011;58943;50.168;4.410;2023-05-14T14:13:25;8.85;;;7.80;;
58109;SDS011;58943;50.168;4.410;2023-05-14T14:15:52;9.02;;;8.05;;
58109;SDS011;58943;50.168;4.410;2023-05-14T14:18:18;8.98;;;7.30;;
58109;SDS011;58943;50.168;4.410;2023-05-14T14:20:45;8.05;;;7.25;;
58109;SDS011;58943;50.168;4.410;2023-05-14T14:23:11;9.40;;;7.45;;
58109;SDS011;58943;50.168;4.410;2023-05-14T14:25:37;9.32;;;7.63;;
58109;SDS011;58943;50.168;4.410;2023-05-14T14:28:04;8.88;;;6.68;;
58109;SDS011;58943;50.168;4.410;2023-05-14T14:30:31;8.57;;;7.30;;
58109;SDS011;58943;50.168;4.410;2023-05-14T14:32:57;7.82;;;6.75;;
58109;SDS011;58943;50.168;4.410;2023-05-14T14:35:26;8.32;;;6.95;;
58109;SDS011;58943;50.168;4.410;2023-05-14T14:37:52;8.90;;;7.43;;
58109;SDS011;58943;50.168;4.410;2023-05-14T14:40:19;7.97;;;7.18;;
58109;SDS011;58943;50.168;4.410;2023-05-14T14:42:47;7.35;;;6.57;;
58109;SDS011;58943;50.168;4.410;2023-05-14T14:45:14;7.30;;;6.60;;
58109;SDS011;58943;50.168;4.410;2023-05-14T14:47:41;7.85;;;6.60;;